Time;durP1;ratioP1;P1;durP2;ratioP2;P2;SDS_P1;SDS_P2;PMS_P1;PMS_P2;Temp;Humidity;BMP_temperature;BMP_pressure;BME280_temperature;BME280_humidity;BME280_pressure;Samples;Min_cycle;Max_cycle;Signal;HPM_P1;HPM_P2
2022/05/03 00:00:02;;;;;;;8.70;5.38;;;;;;;;;;5077725;28;20052;-49
2022/05/03 00:03:01;;;;;;;7.70;5.22;;;;;;;;;;5063140;28;20398;-48
2022/05/03 00:05:48;;;;;;;8.77;5.63;;;;;;;;;;5034345;28;20389;-51
2022/05/03 00:08:24;;;;;;;11.38;5.88;;;;;;;;;;5062225;28;20032;-51
2022/05/03 00:11:12;;;;;;;9.13;6.05;;;;;;;;;;5061876;28;20033;-51
2022/05/03 00:13:56;;;;;;;7.15;5.40;;;;;;;;;;5073943;28;20101;-50
2022/05/03 00:16:23;;;;;;;11.20;4.82;;;;;;;;;;5075506;28;20488;-51
2022/05/03 00:18:50;;;;;;;8.07;5.50;;;;;;;;;;5068269;28;20033;-49
2022/05/03 00:21:16;;;;;;;8.05;5.65;;;;;;;;;;5067892;28;20480;-46
2022/05/03 00:23:42;;;;;;;8.38;5.18;;;;;;;;;;5069449;28;20032;-51
2022/05/03 00:26:09;;;;;;;8.43;4.78;;;;;;;;;;5054023;28;20456;-52
2022/05/03 00:28:36;;;;;;;11.45;5.35;;;;;;;;;;5063207;28;20036;-50
2022/05/03 00:31:02;;;;;;;7.45;5.05;;;;;;;;;;5063216;28;20039;-46
2022/05/03 00:33:29;;;;;;;6.65;4.68;;;;;;;;;;5079334;28;20107;-47
2022/05/03 00:35:55;;;;;;;10.43;4.90;;;;;;;;;;5058378;28;20038;-45
2022/05/03 00:38:21;;;;;;;6.82;4.70;;;;;;;;;;5078607;28;20131;-48
2022/05/03 00:40:56;;;;;;;7.78;4.97;;;;;;;;;;5067246;28;20085;-49
2022/05/03 00:43:29;;;;;;;6.32;4.68;;;;;;;;;;5068004;28;20056;-48
2022/05/03 00:45:58;;;;;;;9.95;4.82;;;;;;;;;;5062481;28;20480;-47
2022/05/03 00:48:39;;;;;;;8.23;5.07;;;;;;;;;;5066368;28;20035;-45
2022/05/03 00:51:38;;;;;;;8.88;5.28;;;;;;;;;;5080747;28;20512;-48
2022/05/03 00:54:19;;;;;;;8.25;5.22;;;;;;;;;;5019136;28;20055;-48
2022/05/03 00:56:51;;;;;;;10.93;4.82;;;;;;;;;;5062159;28;20052;-48
2022/05/03 00:59:31;;;;;;;8.98;4.95;;;;;;;;;;5059653;28;20028;-47
2022/05/03 01:02:02;;;;;;;9.30;5.25;;;;;;;;;;5074685;28;20026;-50
2022/05/03 01:04:57;;;;;;;6.15;4.88;;;;;;;;;;5052097;28;20029;-45
2022/05/03 01:07:22;;;;;;;;;;;;;;;;;;5072910;28;20115;-46
2022/05/03 01:10:04;;;;;;;8.02;4.65;;;;;;;;;;5062917;28;20748;-46
2022/05/03 01:12:42;;;;;;;8.48;4.57;;;;;;;;;;5079712;28;20032;-49
2022/05/03 01:15:18;;;;;;;9.30;5.40;;;;;;;;;;5056569;28;20035;-48
2022/05/03 01:17:50;;;;;;;6.85;4.90;;;;;;;;;;5068439;28;20042;-46
2022/05/03 01:20:26;;;;;;;8.27;5.07;;;;;;;;;;5070749;28;20040;-47
2022/05/03 01:22:55;;;;;;;7.60;4.97;;;;;;;;;;5049930;28;20025;-47
2022/05/03 01:25:40;;;;;;;7.72;4.78;;;;;;;;;;5065556;28;20025;-48
2022/05/03 01:28:15;;;;;;;8.40;5.25;;;;;;;;;;5063579;28;20100;-48
2022/05/03 01:30:45;;;;;;;13.70;5.43;;;;;;;;;;5060422;28;20032;-50
2022/05/03 01:33:14;;;;;;;7.30;5.10;;;;;;;;;;5070120;28;20723;-50
2022/05/03 01:35:40;;;;;;;6.38;5.20;;;;;;;;;;5061962;28;20033;-48
2022/05/03 01:38:19;;;;;;;11.68;5.75;;;;;;;;;;5064476;28;20031;-46
2022/05/03 01:41:11;;;;;;;9.07;5.40;;;;;;;;;;5060609;28;20020;-46
2022/05/03 01:43:45;;;;;;;8.02;5.18;;;;;;;;;;5064121;28;20021;-48
2022/05/03 01:46:16;;;;;;;9.35;5.85;;;;;;;;;;5077435;28;20237;-48
2022/05/03 01:51:43;;;;;;;9.85;5.55;;;;;;;;;;5065992;28;20047;-50
2022/05/03 01:54:30;;;;;;;10.35;5.25;;;;;;;;;;5067198;28;20043;-47
2022/05/03 01:56:58;;;;;;;10.13;5.55;;;;;;;;;;5074689;28;20032;-47
2022/05/03 01:59:39;;;;;;;7.68;5.57;;;;;;;;;;5071055;28;20037;-48
2022/05/03 02:02:25;;;;;;;7.95;5.07;;;;;;;;;;5067615;28;20400;-49
2022/05/03 02:05:00;;;;;;;9.23;5.95;;;;;;;;;;5072069;28;20028;-46
2022/05/03 02:07:45;;;;;;;9.38;5.28;;;;;;;;;;5072988;28;20415;-47
2022/05/03 02:10:18;;;;;;;8.05;5.15;;;;;;;;;;5060258;28;20063;-51
2022/05/03 02:12:46;;;;;;;6.72;4.65;;;;;;;;;;5061861;28;20032;-51
2022/05/03 02:15:14;;;;;;;7.30;4.90;;;;;;;;;;5058546;28;20514;-50
2022/05/03 02:17:50;;;;;;;8.40;5.38;;;;;;;;;;5081764;28;20484;-44
2022/05/03 02:20:28;;;;;;;8.93;5.32;;;;;;;;;;5074576;28;20047;-47
2022/05/03 02:23:13;;;;;;;10.30;5.40;;;;;;;;;;5056222;28;20114;-47
2022/05/03 02:25:58;;;;;;;7.30;4.78;;;;;;;;;;5059699;28;20018;-50
2022/05/03 02:28:39;;;;;;;7.65;5.40;;;;;;;;;;5083528;28;20119;-47
2022/05/03 02:31:08;;;;;;;7.47;5.05;;;;;;;;;;5077588;28;20024;-47
2022/05/03 02:33:38;;;;;;;7.90;5.40;;;;;;;;;;5073083;28;20073;-48
2022/05/03 02:36:07;;;;;;;10.05;5.55;;;;;;;;;;5065947;28;20058;-49
2022/05/03 02:38:37;;;;;;;7.63;5.40;;;;;;;;;;5061086;28;20028;-50
2022/05/03 02:41:06;;;;;;;7.32;5.07;;;;;;;;;;5058718;28;20029;-51
2022/05/03 02:43:35;;;;;;;9.57;5.78;;;;;;;;;;5055915;28;20029;-50
2022/05/03 02:46:21;;;;;;;8.10;5.35;;;;;;;;;;5057858;28;20024;-51
2022/05/03 02:48:56;;;;;;;7.20;4.95;;;;;;;;;;5063462;28;20545;-51
2022/05/03 02:51:27;;;;;;;11.25;6.40;;;;;;;;;;5071703;28;20037;-51
2022/05/03 02:53:57;;;;;;;7.60;5.35;;;;;;;;;;5064253;28;20047;-50
2022/05/03 02:56:37;;;;;;;7.70;5.78;;;;;;;;;;5071165;28;20124;-50
2022/05/03 02:59:06;;;;;;;11.63;6.50;;;;;;;;;;5076373;28;20024;-52
2022/05/03 03:01:48;;;;;;;8.65;5.85;;;;;;;;;;5061546;28;20059;-51
2022/05/03 03:04:27;;;;;;;9.65;5.70;;;;;;;;;;5069589;28;20020;-52
2022/05/03 03:06:57;;;;;;;9.75;5.43;;;;;;;;;;5070227;28;20029;-46
2022/05/03 03:09:46;;;;;;;7.38;5.05;;;;;;;;;;5043276;28;20033;-49
2022/05/03 03:12:31;;;;;;;11.02;5.43;;;;;;;;;;5055728;28;20058;-50
2022/05/03 03:15:06;;;;;;;9.77;5.22;;;;;;;;;;5062645;28;20103;-47
2022/05/03 03:17:35;;;;;;;9.68;5.45;;;;;;;;;;5066466;28;20460;-45
2022/05/03 03:20:01;;;;;;;8.38;5.30;;;;;;;;;;5066201;28;20193;-44
2022/05/03 03:22:31;;;;;;;8.07;5.47;;;;;;;;;;5064988;28;20408;-48
2022/05/03 03:24:58;;;;;;;8.18;5.60;;;;;;;;;;5068146;28;20544;-49
2022/05/03 03:27:25;;;;;;;9.73;6.25;;;;;;;;;;5079540;28;20472;-51
2022/05/03 03:29:55;;;;;;;8.50;5.65;;;;;;;;;;5064931;28;20033;-53
2022/05/03 03:32:22;;;;;;;8.40;5.25;;;;;;;;;;5071208;28;20033;-51
2022/05/03 03:34:50;;;;;;;8.38;5.63;;;;;;;;;;5073070;28;20093;-49
2022/05/03 03:37:16;;;;;;;9.77;5.88;;;;;;;;;;5078929;28;20032;-49
2022/05/03 03:39:42;;;;;;;10.82;6.10;;;;;;;;;;5068801;28;20021;-48
2022/05/03 03:42:08;;;;;;;8.60;5.72;;;;;;;;;;5074961;28;20063;-48
2022/05/03 03:44:35;;;;;;;9.48;4.90;;;;;;;;;;5085978;28;20024;-50
2022/05/03 03:47:02;;;;;;;8.25;5.53;;;;;;;;;;5064795;28;20024;-45
2022/05/03 03:49:29;;;;;;;8.57;5.07;;;;;;;;;;5066030;28;20024;-48
2022/05/03 03:51:55;;;;;;;8.45;5.60;;;;;;;;;;5056904;28;20515;-47
2022/05/03 03:54:23;;;;;;;9.80;6.50;;;;;;;;;;5079320;28;20057;-48
2022/05/03 03:56:50;;;;;;;9.02;5.93;;;;;;;;;;5058632;28;20484;-45
2022/05/03 03:59:16;;;;;;;9.65;5.95;;;;;;;;;;5061961;28;20043;-47
2022/05/03 04:01:43;;;;;;;10.40;5.85;;;;;;;;;;5064069;28;20029;-48
2022/05/03 04:04:09;;;;;;;8.18;5.57;;;;;;;;;;5079768;28;20403;-48
2022/05/03 04:06:35;;;;;;;11.77;5.85;;;;;;;;;;5070857;28;20028;-46
2022/05/03 04:09:02;;;;;;;10.18;5.82;;;;;;;;;;5060467;28;20650;-50
2022/05/03 04:11:28;;;;;;;8.77;5.80;;;;;;;;;;5071035;28;20032;-46
2022/05/03 04:13:54;;;;;;;9.65;6.22;;;;;;;;;;5080795;28;20050;-45
2022/05/03 04:16:20;;;;;;;9.82;5.88;;;;;;;;;;5061412;28;20037;-48
2022/05/03 04:18:46;;;;;;;11.70;6.07;;;;;;;;;;5062183;28;20028;-49
2022/05/03 04:21:16;;;;;;;13.18;5.90;;;;;;;;;;5069913;28;20388;-45
2022/05/03 04:23:42;;;;;;;9.60;6.00;;;;;;;;;;5062355;28;20041;-48
2022/05/03 04:26:09;;;;;;;8.38;5.32;;;;;;;;;;5067047;28;20051;-51
2022/05/03 04:28:35;;;;;;;9.63;5.63;;;;;;;;;;5065828;28;20074;-49
2022/05/03 04:31:01;;;;;;;10.77;5.68;;;;;;;;;;5064447;28;20369;-46
2022/05/03 04:33:27;;;;;;;8.77;5.78;;;;;;;;;;5063989;28;20065;-49
2022/05/03 04:35:53;;;;;;;10.82;5.80;;;;;;;;;;5053095;28;20040;-47
2022/05/03 04:38:19;;;;;;;9.05;5.50;;;;;;;;;;5066203;28;20059;-50
2022/05/03 04:40:45;;;;;;;10.75;5.68;;;;;;;;;;5069163;28;20076;-47
2022/05/03 04:43:11;;;;;;;9.63;6.30;;;;;;;;;;5054848;28;20623;-49
2022/05/03 04:45:37;;;;;;;8.25;4.93;;;;;;;;;;5061189;28;20619;-49
2022/05/03 04:48:03;;;;;;;11.20;5.72;;;;;;;;;;5053732;28;20036;-46
2022/05/03 04:50:29;;;;;;;9.52;6.07;;;;;;;;;;5057406;28;20024;-49
2022/05/03 04:52:56;;;;;;;12.85;6.80;;;;;;;;;;5065389;28;20462;-49
2022/05/03 04:55:23;;;;;;;11.30;6.60;;;;;;;;;;5058628;28;20032;-48
2022/05/03 04:57:49;;;;;;;9.60;5.55;;;;;;;;;;5059409;28;20033;-51
2022/05/03 05:00:15;;;;;;;12.00;6.07;;;;;;;;;;5056100;28;20029;-49
2022/05/03 05:02:41;;;;;;;9.25;5.70;;;;;;;;;;5061377;28;20033;-47
2022/05/03 05:05:07;;;;;;;9.27;5.80;;;;;;;;;;5062419;28;20119;-51
2022/05/03 05:07:33;;;;;;;9.50;5.90;;;;;;;;;;5064734;28;20035;-52
2022/05/03 05:12:44;;;;;;;10.77;5.85;;;;;;;;;;5058905;28;20074;-48
2022/05/03 05:15:10;;;;;;;12.60;5.68;;;;;;;;;;5062421;28;20424;-51
2022/05/03 05:17:36;;;;;;;11.15;6.25;;;;;;;;;;5061148;28;20039;-46
2022/05/03 05:20:02;;;;;;;7.35;5.07;;;;;;;;;;5054303;28;20025;-47
2022/05/03 05:22:28;;;;;;;11.75;5.90;;;;;;;;;;5062499;28;20083;-46
2022/05/03 05:24:54;;;;;;;11.18;6.05;;;;;;;;;;5052768;28;20025;-46
2022/05/03 05:27:20;;;;;;;9.50;5.95;;;;;;;;;;5064682;28;20035;-47
2022/05/03 05:29:46;;;;;;;9.00;5.65;;;;;;;;;;5064388;28;20025;-45
2022/05/03 05:32:12;;;;;;;10.10;5.85;;;;;;;;;;5048625;28;20087;-46
2022/05/03 05:34:38;;;;;;;11.70;5.95;;;;;;;;;;5061352;28;20029;-50
2022/05/03 05:37:04;;;;;;;12.90;6.25;;;;;;;;;;5062128;28;20021;-49
2022/05/03 05:39:31;;;;;;;8.45;5.70;;;;;;;;;;5059638;28;20112;-45
2022/05/03 05:41:58;;;;;;;9.90;6.38;;;;;;;;;;5063814;28;20052;-46
2022/05/03 05:44:24;;;;;;;14.68;6.38;;;;;;;;;;5055676;28;20032;-49
2022/05/03 05:46:52;;;;;;;10.18;6.15;;;;;;;;;;5067364;28;20127;-51
2022/05/03 05:49:18;;;;;;;10.65;6.68;;;;;;;;;;5067955;28;20032;-52
2022/05/03 05:51:45;;;;;;;8.55;5.72;;;;;;;;;;5061894;28;20039;-46
2022/05/03 05:54:11;;;;;;;8.57;5.30;;;;;;;;;;5060686;28;20090;-49
2022/05/03 05:56:37;;;;;;;11.35;6.32;;;;;;;;;;5056435;28;20033;-49
2022/05/03 05:59:03;;;;;;;15.25;6.47;;;;;;;;;;5064816;28;20024;-47
2022/05/03 06:01:39;;;;;;;12.85;6.15;;;;;;;;;;5059071;28;20082;-48
2022/05/03 06:04:05;;;;;;;7.97;5.00;;;;;;;;;;5066246;28;20024;-47
2022/05/03 06:06:32;;;;;;;9.48;5.28;;;;;;;;;;5069874;28;20860;-46
2022/05/03 06:08:59;;;;;;;9.45;5.60;;;;;;;;;;5070039;28;20024;-45
2022/05/03 06:11:26;;;;;;;9.73;5.55;;;;;;;;;;5060003;28;20028;-45
2022/05/03 06:13:52;;;;;;;8.80;5.32;;;;;;;;;;5074397;28;20411;-45
2022/05/03 06:16:19;;;;;;;8.80;5.15;;;;;;;;;;5069615;28;20036;-47
2022/05/03 06:18:45;;;;;;;12.23;4.90;;;;;;;;;;5063647;28;20060;-48
2022/05/03 06:21:11;;;;;;;8.00;4.15;;;;;;;;;;5060506;28;20053;-46
2022/05/03 06:23:38;;;;;;;7.50;4.78;;;;;;;;;;5063484;28;20468;-48
2022/05/03 06:26:09;;;;;;;7.22;4.70;;;;;;;;;;5073945;28;20024;-48
2022/05/03 06:28:35;;;;;;;10.50;4.85;;;;;;;;;;5077290;28;20039;-47
2022/05/03 06:31:01;;;;;;;7.55;4.22;;;;;;;;;;5063438;28;20036;-49
2022/05/03 06:33:27;;;;;;;8.55;4.97;;;;;;;;;;5073840;28;20028;-47
2022/05/03 06:35:53;;;;;;;9.07;4.90;;;;;;;;;;5064919;28;20170;-49
2022/05/03 06:38:19;;;;;;;7.13;4.05;;;;;;;;;;5060998;28;20070;-51
2022/05/03 06:40:46;;;;;;;7.35;4.43;;;;;;;;;;5058619;28;20013;-48
2022/05/03 06:43:12;;;;;;;6.10;3.80;;;;;;;;;;5060278;28;20732;-45
2022/05/03 06:45:38;;;;;;;5.75;3.60;;;;;;;;;;5059006;28;20024;-49
2022/05/03 06:48:06;;;;;;;7.05;3.50;;;;;;;;;;5077080;28;20024;-47
2022/05/03 06:50:32;;;;;;;8.15;3.25;;;;;;;;;;5065354;28;20025;-48
2022/05/03 06:52:58;;;;;;;6.65;3.17;;;;;;;;;;5070868;28;20044;-49
2022/05/03 06:55:24;;;;;;;4.82;2.80;;;;;;;;;;5071753;28;20480;-47
2022/05/03 06:57:50;;;;;;;5.50;3.33;;;;;;;;;;5058735;28;20071;-49
2022/05/03 07:00:17;;;;;;;4.70;3.03;;;;;;;;;;5067103;28;20052;-48
2022/05/03 07:02:42;;;;;;;6.50;3.25;;;;;;;;;;5064412;28;20097;-46
2022/05/03 07:05:09;;;;;;;6.53;3.22;;;;;;;;;;5064748;28;20029;-45
2022/05/03 07:07:35;;;;;;;7.05;3.55;;;;;;;;;;5072958;28;20444;-48
2022/05/03 07:10:01;;;;;;;9.20;3.60;;;;;;;;;;5082078;28;20021;-50
2022/05/03 07:12:28;;;;;;;5.70;3.60;;;;;;;;;;5072922;28;20330;-47
2022/05/03 07:15:00;;;;;;;5.35;2.50;;;;;;;;;;5063540;28;20595;-47
2022/05/03 07:22:57;;;;;;;6.93;2.53;;;;;;;;;;5066339;28;20039;-49
2022/05/03 07:25:23;;;;;;;6.78;2.53;;;;;;;;;;5062304;28;20074;-47
2022/05/03 07:27:50;;;;;;;3.45;2.15;;;;;;;;;;5081499;28;20028;-47
2022/05/03 07:30:16;;;;;;;5.70;2.25;;;;;;;;;;5070807;28;20428;-47
2022/05/03 07:32:43;;;;;;;3.42;1.75;;;;;;;;;;5068164;28;20032;-49
2022/05/03 07:35:09;;;;;;;3.78;1.45;;;;;;;;;;5047736;28;20128;-50
2022/05/03 07:37:36;;;;;;;3.22;1.60;;;;;;;;;;5054074;28;20028;-51
2022/05/03 07:40:02;;;;;;;3.45;1.25;;;;;;;;;;5063340;28;20040;-51
2022/05/03 07:42:28;;;;;;;6.75;2.47;;;;;;;;;;5079756;28;20013;-48
2022/05/03 07:44:54;;;;;;;9.98;1.90;;;;;;;;;;5064951;28;20029;-51
2022/05/03 07:47:20;;;;;;;3.60;1.65;;;;;;;;;;5085196;28;20433;-48
2022/05/03 07:49:46;;;;;;;3.55;1.60;;;;;;;;;;5066114;28;20025;-49
2022/05/03 07:52:12;;;;;;;2.38;1.60;;;;;;;;;;5070540;28;20052;-48
2022/05/03 07:54:42;;;;;;;3.45;1.40;;;;;;;;;;5053989;28;20237;-50
2022/05/03 07:57:08;;;;;;;4.88;2.00;;;;;;;;;;5082566;28;20029;-49
2022/05/03 07:59:34;;;;;;;6.28;1.63;;;;;;;;;;5071263;28;20032;-47
2022/05/03 08:02:01;;;;;;;4.03;1.58;;;;;;;;;;5057046;28;20028;-48
2022/05/03 08:04:27;;;;;;;2.58;1.15;;;;;;;;;;5063673;28;20374;-47
2022/05/03 08:06:53;;;;;;;2.63;1.30;;;;;;;;;;5067021;28;20050;-48
2022/05/03 08:09:19;;;;;;;7.85;1.35;;;;;;;;;;5074313;28;20036;-47
2022/05/03 08:11:45;;;;;;;2.42;0.90;;;;;;;;;;5090521;28;20399;-47
2022/05/03 08:14:11;;;;;;;1.88;0.80;;;;;;;;;;5069287;28;20033;-46
2022/05/03 08:16:38;;;;;;;2.17;1.08;;;;;;;;;;5089205;28;20028;-50
2022/05/03 08:19:04;;;;;;;2.00;1.40;;;;;;;;;;5079935;28;20051;-49
2022/05/03 08:21:32;;;;;;;2.60;1.77;;;;;;;;;;5080977;28;20476;-50
2022/05/03 08:23:59;;;;;;;7.72;1.33;;;;;;;;;;5066667;28;20485;-51
2022/05/03 08:26:25;;;;;;;2.42;1.40;;;;;;;;;;5072513;28;20035;-48
2022/05/03 08:28:51;;;;;;;3.08;1.50;;;;;;;;;;5063629;28;20031;-52
2022/05/03 08:31:17;;;;;;;5.43;1.42;;;;;;;;;;5073957;28;20433;-50
2022/05/03 08:33:44;;;;;;;3.72;1.88;;;;;;;;;;5076068;28;20028;-51
2022/05/03 08:36:10;;;;;;;4.03;1.52;;;;;;;;;;5088898;28;20039;-47
2022/05/03 08:44:05;;;;;;;3.28;1.40;;;;;;;;;;5066644;28;20055;-51
2022/05/03 08:46:33;;;;;;;2.92;1.50;;;;;;;;;;5074499;28;20468;-50
2022/05/03 08:49:03;;;;;;;4.38;1.98;;;;;;;;;;5078513;28;20433;-51
2022/05/03 08:51:30;;;;;;;4.10;1.38;;;;;;;;;;5066773;28;20093;-50
2022/05/03 08:53:57;;;;;;;2.53;1.40;;;;;;;;;;5064681;28;20041;-48
2022/05/03 08:56:23;;;;;;;2.30;1.15;;;;;;;;;;5062636;28;20550;-49
2022/05/03 08:58:49;;;;;;;1.95;1.20;;;;;;;;;;5077890;28;20079;-49
2022/05/03 09:01:15;;;;;;;2.20;1.65;;;;;;;;;;5061418;28;20106;-50
2022/05/03 09:03:41;;;;;;;3.42;1.20;;;;;;;;;;5072799;28;20033;-48
2022/05/03 09:06:08;;;;;;;2.97;1.90;;;;;;;;;;5059476;28;20033;-49
2022/05/03 09:08:34;;;;;;;4.60;1.75;;;;;;;;;;5074225;28;20612;-49
2022/05/03 09:11:11;;;;;;;2.47;1.70;;;;;;;;;;5064723;28;20063;-46
2022/05/03 09:13:37;;;;;;;8.00;1.65;;;;;;;;;;5070168;28;20028;-48
2022/05/03 09:16:17;;;;;;;6.07;1.30;;;;;;;;;;5081637;28;20103;-48
2022/05/03 09:18:44;;;;;;;3.15;1.70;;;;;;;;;;5037615;28;20108;-46
2022/05/03 09:24:05;;;;;;;2.05;1.10;;;;;;;;;;5074309;28;20035;-46
2022/05/03 09:26:31;;;;;;;5.82;1.52;;;;;;;;;;5073830;28;20039;-48
2022/05/03 09:29:01;;;;;;;4.63;1.58;;;;;;;;;;5060162;28;20035;-50
2022/05/03 09:31:27;;;;;;;4.50;1.40;;;;;;;;;;5074305;28;20032;-48
2022/05/03 09:33:54;;;;;;;4.28;1.70;;;;;;;;;;5083730;28;20039;-47
2022/05/03 09:36:20;;;;;;;3.33;1.45;;;;;;;;;;5073559;28;20423;-46
2022/05/03 09:38:50;;;;;;;1.75;1.02;;;;;;;;;;5045702;28;20499;-47
2022/05/03 09:41:17;;;;;;;1.83;1.27;;;;;;;;;;5080592;28;20033;-47
2022/05/03 09:44:01;;;;;;;1.70;1.00;;;;;;;;;;5067394;28;20021;-50
2022/05/03 09:46:28;;;;;;;2.47;1.10;;;;;;;;;;5068510;28;20032;-48
2022/05/03 09:48:55;;;;;;;3.53;1.00;;;;;;;;;;5070233;28;20025;-48
2022/05/03 09:51:21;;;;;;;3.03;0.95;;;;;;;;;;5073330;28;20068;-52
2022/05/03 09:54:00;;;;;;;1.75;0.75;;;;;;;;;;5066089;28;20119;-51
2022/05/03 09:56:28;;;;;;;2.80;1.40;;;;;;;;;;5069715;28;20028;-49
2022/05/03 09:59:04;;;;;;;1.38;0.75;;;;;;;;;;5071538;28;20028;-49
2022/05/03 10:01:32;;;;;;;2.08;0.90;;;;;;;;;;5060733;28;20033;-49
2022/05/03 10:03:58;;;;;;;2.13;0.88;;;;;;;;;;5063138;28;20035;-51
2022/05/03 10:06:24;;;;;;;1.67;1.00;;;;;;;;;;5054555;28;20036;-52
2022/05/03 10:08:51;;;;;;;1.33;0.82;;;;;;;;;;5072764;28;20503;-52
2022/05/03 10:11:17;;;;;;;6.15;1.10;;;;;;;;;;5069953;28;20020;-52
2022/05/03 10:13:43;;;;;;;1.88;1.10;;;;;;;;;;5075593;28;20388;-49
2022/05/03 10:21:43;;;;;;;1.65;1.00;;;;;;;;;;5072697;28;20566;-53
2022/05/03 10:24:14;;;;;;;2.80;0.98;;;;;;;;;;5086384;28;20028;-48
2022/05/03 10:26:56;;;;;;;10.90;1.45;;;;;;;;;;5083806;28;20161;-52
2022/05/03 10:29:25;;;;;;;1.70;1.00;;;;;;;;;;5073078;28;20115;-52
2022/05/03 10:31:54;;;;;;;2.58;0.77;;;;;;;;;;5066919;28;20031;-49
2022/05/03 10:34:38;;;;;;;1.80;0.65;;;;;;;;;;5079356;28;20059;-48
2022/05/03 10:37:05;;;;;;;1.40;0.70;;;;;;;;;;5056631;28;20041;-52
2022/05/03 10:39:31;;;;;;;2.95;0.85;;;;;;;;;;5075885;28;20047;-50
2022/05/03 10:42:02;;;;;;;1.88;0.90;;;;;;;;;;5075118;28;20119;-50
2022/05/03 10:44:47;;;;;;;1.23;0.70;;;;;;;;;;5079789;28;20060;-51
2022/05/03 10:47:14;;;;;;;1.88;0.60;;;;;;;;;;5061588;28;20070;-50
2022/05/03 10:49:59;;;;;;;3.63;0.80;;;;;;;;;;5083324;28;20038;-49
2022/05/03 10:52:25;;;;;;;2.08;0.80;;;;;;;;;;5079882;28;20114;-50
2022/05/03 10:55:07;;;;;;;1.65;0.82;;;;;;;;;;5084079;28;20074;-48
2022/05/03 10:57:33;;;;;;;1.17;0.63;;;;;;;;;;5073436;28;20520;-51
2022/05/03 10:59:59;;;;;;;3.42;1.17;;;;;;;;;;5079446;28;20084;-52
2022/05/03 11:02:25;;;;;;;1.45;0.70;;;;;;;;;;5054107;28;20511;-48
2022/05/03 11:05:10;;;;;;;1.10;0.55;;;;;;;;;;5065540;28;20028;-50
2022/05/03 11:07:36;;;;;;;0.50;0.43;;;;;;;;;;5055290;28;20035;-48
2022/05/03 11:10:21;;;;;;;0.70;0.50;;;;;;;;;;5063365;28;20024;-50
2022/05/03 11:12:50;;;;;;;1.80;0.70;;;;;;;;;;5083517;28;20539;-48
2022/05/03 11:15:16;;;;;;;0.93;0.60;;;;;;;;;;5064615;28;20020;-48
2022/05/03 11:17:42;;;;;;;0.52;0.50;;;;;;;;;;5070668;28;20052;-52
2022/05/03 11:20:08;;;;;;;2.78;0.50;;;;;;;;;;5064482;28;20542;-51
2022/05/03 11:22:36;;;;;;;1.02;0.45;;;;;;;;;;5078390;28;20033;-51
2022/05/03 11:25:20;;;;;;;0.73;0.40;;;;;;;;;;5068192;28;20033;-51
2022/05/03 11:27:46;;;;;;;1.52;0.40;;;;;;;;;;5065886;28;20027;-52
2022/05/03 11:30:13;;;;;;;2.08;0.32;;;;;;;;;;5070600;28;20028;-47
2022/05/03 11:32:41;;;;;;;0.82;0.45;;;;;;;;;;5062313;28;20024;-48
2022/05/03 11:35:09;;;;;;;0.85;0.30;;;;;;;;;;5060543;28;20055;-51
2022/05/03 11:37:36;;;;;;;0.60;0.28;;;;;;;;;;5059670;28;20659;-49
2022/05/03 11:40:06;;;;;;;0.75;0.25;;;;;;;;;;5056952;28;20107;-52
2022/05/03 11:42:39;;;;;;;1.45;0.65;;;;;;;;;;5066945;28;20115;-46
2022/05/03 11:45:05;;;;;;;0.55;0.25;;;;;;;;;;5066694;28;20025;-50
2022/05/03 11:47:34;;;;;;;0.50;0.30;;;;;;;;;;5068771;28;20056;-49
2022/05/03 11:50:00;;;;;;;6.38;0.93;;;;;;;;;;5073946;28;20036;-50
2022/05/03 11:58:00;;;;;;;0.38;0.15;;;;;;;;;;5037562;28;20476;-50
2022/05/03 12:00:26;;;;;;;0.75;0.20;;;;;;;;;;5074174;28;20498;-50
2022/05/03 12:02:52;;;;;;;0.52;0.17;;;;;;;;;;5067697;28;20632;-51
2022/05/03 12:05:19;;;;;;;0.30;0.13;;;;;;;;;;5075173;28;20043;-48
2022/05/03 12:07:47;;;;;;;0.30;0.20;;;;;;;;;;5065367;28;20107;-49
2022/05/03 12:10:29;;;;;;;0.98;0.28;;;;;;;;;;5066879;28;20543;-46
2022/05/03 12:13:06;;;;;;;0.50;0.20;;;;;;;;;;5058964;28;20427;-51
2022/05/03 12:15:32;;;;;;;0.95;0.30;;;;;;;;;;5057946;28;20419;-53
2022/05/03 12:18:00;;;;;;;1.05;0.30;;;;;;;;;;5058598;28;20029;-52
2022/05/03 12:20:28;;;;;;;0.40;0.22;;;;;;;;;;5061491;28;20755;-48
2022/05/03 12:23:08;;;;;;;0.35;0.13;;;;;;;;;;5054215;28;20103;-51
2022/05/03 12:25:34;;;;;;;2.83;0.30;;;;;;;;;;5066582;28;20103;-51
2022/05/03 12:28:04;;;;;;;0.35;0.10;;;;;;;;;;5061425;28;20660;-46
2022/05/03 12:30:31;;;;;;;2.38;0.20;;;;;;;;;;5053605;28;20031;-50
2022/05/03 12:33:00;;;;;;;1.63;0.30;;;;;;;;;;5075819;28;20028;-48
2022/05/03 12:35:30;;;;;;;0.75;0.30;;;;;;;;;;5043701;28;20036;-51
2022/05/03 12:37:56;;;;;;;1.75;0.10;;;;;;;;;;5062802;28;20029;-46
2022/05/03 12:40:26;;;;;;;2.05;0.20;;;;;;;;;;5057341;28;20519;-50
2022/05/03 12:42:53;;;;;;;1.48;0.13;;;;;;;;;;5070316;28;20033;-51
2022/05/03 12:45:22;;;;;;;0.00;0.00;;;;;;;;;;5065105;28;20055;-49
2022/05/03 12:47:48;;;;;;;0.65;0.10;;;;;;;;;;5055403;28;20191;-50
2022/05/03 12:50:14;;;;;;;0.47;0.30;;;;;;;;;;5052862;28;20020;-49
2022/05/03 12:52:40;;;;;;;0.20;0.10;;;;;;;;;;5052563;28;20041;-50
2022/05/03 12:55:06;;;;;;;1.95;0.15;;;;;;;;;;5060928;28;20021;-51
2022/05/03 13:00:17;;;;;;;0.30;0.10;;;;;;;;;;5061223;28;20105;-48
2022/05/03 13:02:43;;;;;;;1.15;0.28;;;;;;;;;;5062279;28;20024;-48
2022/05/03 13:05:09;;;;;;;0.32;0.20;;;;;;;;;;5060751;28;20027;-51
2022/05/03 13:07:35;;;;;;;0.20;0.20;;;;;;;;;;5059741;28;20024;-51
2022/05/03 13:10:01;;;;;;;0.52;0.20;;;;;;;;;;5053306;28;20488;-50
2022/05/03 13:12:27;;;;;;;0.40;0.20;;;;;;;;;;5058060;28;20040;-48
2022/05/03 13:14:53;;;;;;;0.52;0.25;;;;;;;;;;5059824;28;20041;-48
2022/05/03 13:17:19;;;;;;;0.30;0.20;;;;;;;;;;5080927;28;20365;-50
2022/05/03 13:19:45;;;;;;;2.38;0.45;;;;;;;;;;5078256;28;20115;-51
2022/05/03 13:22:11;;;;;;;0.65;0.30;;;;;;;;;;5079323;28;20117;-48
2022/05/03 13:24:37;;;;;;;1.15;0.10;;;;;;;;;;5055384;28;20028;-47
2022/05/03 13:27:04;;;;;;;0.45;0.10;;;;;;;;;;5068893;28;20086;-50
2022/05/03 13:29:30;;;;;;;1.38;0.20;;;;;;;;;;5064518;28;20042;-49
2022/05/03 13:31:56;;;;;;;10.45;1.15;;;;;;;;;;5068767;28;20021;-51
2022/05/03 13:34:22;;;;;;;0.30;0.20;;;;;;;;;;5054377;28;20032;-48
2022/05/03 13:42:17;;;;;;;0.43;0.20;;;;;;;;;;5061987;28;20975;-50
2022/05/03 13:44:43;;;;;;;0.57;0.30;;;;;;;;;;5058197;28;20036;-49
2022/05/03 13:47:09;;;;;;;0.70;0.30;;;;;;;;;;5066530;28;20388;-50
2022/05/03 13:49:36;;;;;;;0.43;0.20;;;;;;;;;;5061707;28;20827;-50
2022/05/03 13:52:02;;;;;;;3.13;0.30;;;;;;;;;;5066980;28;20476;-52
2022/05/03 13:54:28;;;;;;;0.20;0.20;;;;;;;;;;5066549;28;20036;-50
2022/05/03 13:56:54;;;;;;;0.50;0.38;;;;;;;;;;5059281;28;20099;-49
2022/05/03 13:59:20;;;;;;;0.47;0.32;;;;;;;;;;5075692;28;20032;-47
2022/05/03 14:01:46;;;;;;;0.30;0.28;;;;;;;;;;5056723;28;20047;-51
2022/05/03 14:04:12;;;;;;;0.82;0.40;;;;;;;;;;5052857;28;20476;-52
2022/05/03 14:06:38;;;;;;;0.60;0.40;;;;;;;;;;5061533;28;20472;-51
2022/05/03 14:09:04;;;;;;;0.52;0.40;;;;;;;;;;5050981;28;20044;-51
2022/05/03 14:11:32;;;;;;;0.85;0.30;;;;;;;;;;5055711;28;20036;-52
2022/05/03 14:13:58;;;;;;;0.68;0.50;;;;;;;;;;5053555;28;21590;-48
2022/05/03 14:16:24;;;;;;;0.80;0.40;;;;;;;;;;5061779;28;20052;-50
2022/05/03 14:18:50;;;;;;;0.75;0.43;;;;;;;;;;5061328;28;20027;-50
2022/05/03 14:21:16;;;;;;;2.50;0.63;;;;;;;;;;5056065;28;20044;-51
2022/05/03 14:23:42;;;;;;;2.35;0.30;;;;;;;;;;5057769;28;20070;-50
2022/05/03 14:26:12;;;;;;;1.10;0.55;;;;;;;;;;5067435;28;20017;-52
2022/05/03 14:28:38;;;;;;;0.70;0.30;;;;;;;;;;5066167;28;20070;-52
2022/05/03 14:31:04;;;;;;;0.80;0.45;;;;;;;;;;5065730;28;20024;-50
2022/05/03 14:33:30;;;;;;;1.80;0.50;;;;;;;;;;5060843;28;20028;-51
2022/05/03 14:35:56;;;;;;;2.20;0.50;;;;;;;;;;5068556;28;20039;-51
2022/05/03 14:38:22;;;;;;;0.60;0.45;;;;;;;;;;5071634;28;20498;-51
2022/05/03 14:40:48;;;;;;;3.75;0.70;;;;;;;;;;5062452;28;20021;-53
2022/05/03 14:43:15;;;;;;;0.80;0.40;;;;;;;;;;5066862;28;20365;-53
2022/05/03 14:45:41;;;;;;;3.33;0.68;;;;;;;;;;5071417;28;20507;-50
2022/05/03 14:48:08;;;;;;;0.85;0.55;;;;;;;;;;5083066;28;20031;-53
2022/05/03 14:50:34;;;;;;;0.40;0.40;;;;;;;;;;5071001;28;20033;-51
2022/05/03 14:53:00;;;;;;;1.42;0.57;;;;;;;;;;5069801;28;20074;-52
2022/05/03 14:55:26;;;;;;;2.35;0.68;;;;;;;;;;5066733;28;20103;-52
2022/05/03 15:03:22;;;;;;;0.50;0.40;;;;;;;;;;5068869;28;20447;-54
2022/05/03 15:05:48;;;;;;;1.30;0.55;;;;;;;;;;5065628;28;20032;-51
2022/05/03 15:08:14;;;;;;;1.30;0.70;;;;;;;;;;5071468;28;20396;-52
2022/05/03 15:10:41;;;;;;;1.27;0.85;;;;;;;;;;5066978;28;20064;-52
2022/05/03 15:13:07;;;;;;;1.20;0.80;;;;;;;;;;5081271;28;20032;-52
2022/05/03 15:15:34;;;;;;;1.30;0.93;;;;;;;;;;5069521;28;20043;-48
2022/05/03 15:18:00;;;;;;;1.83;0.90;;;;;;;;;;5077855;28;20545;-50
2022/05/03 15:20:28;;;;;;;3.20;0.93;;;;;;;;;;5067666;28;20039;-51
2022/05/03 15:25:39;;;;;;;1.77;0.82;;;;;;;;;;5063178;28;20043;-50
2022/05/03 15:28:05;;;;;;;2.13;0.88;;;;;;;;;;5053097;28;20107;-52
2022/05/03 15:30:31;;;;;;;4.28;1.15;;;;;;;;;;5062764;28;20479;-51
2022/05/03 15:32:57;;;;;;;2.05;0.70;;;;;;;;;;5062754;28;20029;-50
2022/05/03 15:35:24;;;;;;;1.20;0.90;;;;;;;;;;5058751;28;20041;-52
2022/05/03 15:37:52;;;;;;;2.55;1.02;;;;;;;;;;5051858;28;20508;-49